Time,TemperatureF,DewpointF,PressureIn,WindDirection,WindDirectionDegrees,WindSpeedMPH,WindSpeedGustMPH,Humidity,HourlyPrecipIn,Conditions,Clouds,dailyrainin,SoftwareType,DateUTC
2013-06-26 00:04:00,70.5,67.8,29.89,North,0,0.0,0.0,91,0.00,,,0.00,WUHU21623XXSP,2013-06-26 04:04:00,
2013-06-26 00:09:00,70.5,67.8,29.90,North,0,0.0,0.0,91,0.00,,,0.00,WUHU21623XXSP,2013-06-26 04:09:00,
2013-06-26 00:14:00,70.5,67.8,29.90,North,0,0.0,0.0,91,0.00,,,0.00,WUHU21623XXSP,2013-06-26 04:14:00,
2013-06-26 00:19:00,70.5,68.1,29.90,North,0,0.0,0.0,92,0.00,,,0.00,WUHU21623XXSP,2013-06-26 04:19:00,
2013-06-26 00:24:00,70.7,68.3,29.90,North,0,0.0,0.0,92,0.00,,,0.00,WUHU21623XXSP,2013-06-26 04:24:00,
2013-06-26 00:29:00,70.7,68.3,29.90,North,0,0.0,0.0,92,0.00,,,0.00,WUHU21623XXSP,2013-06-26 04:29:00,
2013-06-26 00:34:00,70.9,68.3,29.90,North,0,0.0,0.0,92,0.00,,,0.00,WUHU21623XXSP,2013-06-26 04:34:00,
2013-06-26 00:39:00,70.9,68.4,29.89,North,0,0.0,0.0,92,0.00,,,0.00,WUHU21623XXSP,2013-06-26 04:39:00,
2013-06-26 00:44:00,70.9,68.4,29.89,North,0,0.0,0.0,92,0.00,,,0.00,WUHU21623XXSP,2013-06-26 04:44:00,
2013-06-26 00:49:00,70.9,68.4,29.89,North,0,0.0,0.0,92,0.00,,,0.00,WUHU21623XXSP,2013-06-26 04:49:00,
2013-06-26 00:54:00,70.5,68.1,29.89,North,0,0.0,0.0,92,0.00,,,0.00,WUHU21623XXSP,2013-06-26 04:54:00,
2013-06-26 00:59:00,70.5,68.1,29.90,North,0,0.0,0.0,92,0.00,,,0.00,WUHU21623XXSP,2013-06-26 04:59:00,
2013-06-26 01:04:00,70.5,68.1,29.90,North,0,0.0,0.0,92,0.00,,,0.00,WUHU21623XXSP,2013-06-26 05:04:00,
2013-06-26 01:09:00,70.3,67.6,29.90,North,0,0.0,0.0,91,0.00,,,0.00,WUHU21623XXSP,2013-06-26 05:09:00,
2013-06-26 01:14:00,70.2,67.4,29.90,South,180,1.6,1.6,91,0.00,,,0.00,WUHU21623XXSP,2013-06-26 05:14:00,
2013-06-26 01:19:00,70.0,67.2,29.90,South,180,2.7,2.7,91,0.00,,,0.00,WUHU21623XXSP,2013-06-26 05:19:00,
2013-06-26 01:24:00,69.6,66.7,29.90,South,180,2.7,2.7,90,0.00,,,0.00,WUHU21623XXSP,2013-06-26 05:24:00,
2013-06-26 01:29:00,69.6,66.6,29.90,SSW,202,2.5,2.5,90,0.00,,,0.00,WUHU21623XXSP,2013-06-26 05:29:00,
2013-06-26 01:34:00,69.4,66.4,29.90,North,0,0.0,0.0,90,0.00,,,0.00,WUHU21623XXSP,2013-06-26 05:34:00,
2013-06-26 01:39:00,69.3,66.2,29.90,North,0,0.0,0.0,90,0.00,,,0.00,WUHU21623XXSP,2013-06-26 05:39:00,
2013-06-26 01:44:00,69.1,66.2,29.89,North,0,0.0,0.0,89,0.00,,,0.00,WUHU21623XXSP,2013-06-26 05:44:00,
2013-06-26 01:49:00,69.1,65.7,29.88,North,0,0.0,0.0,89,0.00,,,0.00,WUHU21623XXSP,2013-06-26 05:49:00,
2013-06-26 01:54:00,68.7,65.3,29.88,North,0,0.0,0.0,89,0.00,,,0.00,WUHU21623XXSP,2013-06-26 05:54:00,
2013-06-26 01:59:00,68.7,65.3,29.87,North,0,0.0,0.0,89,0.00,,,0.00,WUHU21623XXSP,2013-06-26 05:59:00,
2013-06-26 02:04:00,68.7,65.3,29.87,North,0,0.0,0.0,89,0.00,,,0.00,WUHU21623XXSP,2013-06-26 06:04:00,
2013-06-26 02:09:00,68.5,65.1,29.86,North,0,0.0,0.0,89,0.00,,,0.00,WUHU21623XXSP,2013-06-26 06:09:00,
2013-06-26 02:14:00,68.4,65.0,29.86,North,0,0.0,0.0,89,0.00,,,0.00,WUHU21623XXSP,2013-06-26 06:14:00,
2013-06-26 02:19:00,68.2,64.8,29.85,North,0,0.0,0.0,89,0.00,,,0.00,WUHU21623XXSP,2013-06-26 06:19:00,
2013-06-26 02:24:00,67.8,64.4,29.85,North,0,0.0,0.0,89,0.00,,,0.00,WUHU21623XXSP,2013-06-26 06:24:00,
2013-06-26 02:29:00,67.8,64.4,29.85,North,0,0.0,0.0,89,0.00,,,0.00,WUHU21623XXSP,2013-06-26 06:29:00,
2013-06-26 02:34:00,67.6,64.6,29.85,North,0,0.0,0.0,90,0.00,,,0.00,WUHU21623XXSP,2013-06-26 06:34:00,
2013-06-26 02:39:00,67.3,64.2,29.85,North,0,0.0,0.0,90,0.00,,,0.00,WUHU21623XXSP,2013-06-26 06:39:00,
2013-06-26 02:44:00,67.3,64.2,29.85,North,0,0.0,0.0,90,0.00,,,0.00,WUHU21623XXSP,2013-06-26 06:44:00,
2013-06-26 02:49:00,67.1,64.0,29.85,North,0,0.0,0.0,90,0.00,,,0.00,WUHU21623XXSP,2013-06-26 06:49:00,
2013-06-26 02:54:00,66.9,63.9,29.85,North,0,0.0,0.0,90,0.00,,,0.00,WUHU21623XXSP,2013-06-26 06:54:00,
2013-06-26 02:59:00,66.7,63.7,29.85,North,0,0.0,0.0,90,0.00,,,0.00,WUHU21623XXSP,2013-06-26 06:59:00,
2013-06-26 03:04:00,66.7,63.7,29.85,North,0,0.0,0.0,90,0.00,,,0.00,WUHU21623XXSP,2013-06-26 07:04:00,
2013-06-26 03:09:00,66.6,63.5,29.85,North,0,0.0,0.0,90,0.00,,,0.00,WUHU21623XXSP,2013-06-26 07:09:00,
2013-06-26 03:14:00,66.4,63.3,29.85,North,0,0.0,0.0,90,0.00,,,0.00,WUHU21623XXSP,2013-06-26 07:14:00,
2013-06-26 03:19:00,66.2,63.1,29.84,North,0,0.0,0.0,90,0.00,,,0.00,WUHU21623XXSP,2013-06-26 07:19:00,
2013-06-26 03:24:00,66.0,63.0,29.84,North,0,0.0,0.0,90,0.00,,,0.00,WUHU21623XXSP,2013-06-26 07:24:00,
2013-06-26 03:29:00,66.0,63.0,29.84,North,0,0.0,0.0,90,0.00,,,0.00,WUHU21623XXSP,2013-06-26 07:29:00,
2013-06-26 03:34:00,66.0,63.0,29.84,North,0,0.0,0.0,90,0.00,,,0.00,WUHU21623XXSP,2013-06-26 07:34:00,
2013-06-26 03:39:00,65.8,63.0,29.84,North,0,0.0,0.0,90,0.00,,,0.00,WUHU21623XXSP,2013-06-26 07:39:00,
2013-06-26 03:44:00,65.8,62.8,29.84,North,0,0.0,0.0,90,0.00,,,0.00,WUHU21623XXSP,2013-06-26 07:44:00,
2013-06-26 03:49:00,65.8,62.8,29.84,North,0,0.0,0.0,90,0.00,,,0.00,WUHU21623XXSP,2013-06-26 07:49:00,
2013-06-26 03:54:00,65.7,62.9,29.84,North,0,0.0,0.0,91,0.00,,,0.00,WUHU21623XXSP,2013-06-26 07:54:00,
2013-06-26 03:59:00,65.5,62.9,29.84,North,0,0.0,0.0,91,0.00,,,0.00,WUHU21623XXSP,2013-06-26 07:59:00,
2013-06-26 04:04:00,65.5,62.8,29.84,North,0,0.0,0.0,91,0.00,,,0.00,WUHU21623XXSP,2013-06-26 08:04:00,
2013-06-26 04:09:00,65.5,62.8,29.84,North,0,0.0,0.0,91,0.00,,,0.00,WUHU21623XXSP,2013-06-26 08:09:00,
2013-06-26 04:14:00,65.3,62.6,29.84,North,0,0.0,0.0,91,0.00,,,0.00,WUHU21623XXSP,2013-06-26 08:14:00,
2013-06-26 04:19:00,65.3,62.6,29.84,North,0,0.0,0.0,91,0.00,,,0.00,WUHU21623XXSP,2013-06-26 08:19:00,
2013-06-26 04:24:00,65.3,62.6,29.84,North,0,0.0,0.0,91,0.00,,,0.00,WUHU21623XXSP,2013-06-26 08:24:00,
2013-06-26 04:29:00,65.1,62.5,29.84,North,0,0.0,0.0,91,0.00,,,0.00,WUHU21623XXSP,2013-06-26 08:29:00,
2013-06-26 04:34:00,65.1,62.5,29.84,North,0,0.0,0.0,91,0.00,,,0.00,WUHU21623XXSP,2013-06-26 08:34:00,
2013-06-26 04:39:00,65.1,62.5,29.84,North,0,0.0,0.0,91,0.00,,,0.00,WUHU21623XXSP,2013-06-26 08:39:00,
2013-06-26 04:44:00,65.1,62.5,29.85,North,0,0.0,0.0,91,0.00,,,0.00,WUHU21623XXSP,2013-06-26 08:44:00,
2013-06-26 04:49:00,65.1,62.5,29.85,North,0,0.0,0.0,91,0.00,,,0.00,WUHU21623XXSP,2013-06-26 08:49:00,
2013-06-26 04:54:00,65.1,62.5,29.85,North,0,0.0,0.0,91,0.00,,,0.00,WUHU21623XXSP,2013-06-26 08:54:00,
2013-06-26 04:59:00,65.1,62.5,29.85,North,0,0.0,0.0,91,0.00,,,0.00,WUHU21623XXSP,2013-06-26 08:59:00,
2013-06-26 05:04:00,65.1,62.5,29.85,North,0,0.0,0.0,91,0.00,,,0.00,WUHU21623XXSP,2013-06-26 09:04:00,
2013-06-26 05:09:00,65.1,62.5,29.85,North,0,0.0,0.0,91,0.00,,,0.00,WUHU21623XXSP,2013-06-26 09:09:00,
2013-06-26 05:14:00,65.1,62.5,29.85,North,0,0.0,0.0,91,0.00,,,0.00,WUHU21623XXSP,2013-06-26 09:14:00,
2013-06-26 05:19:00,65.1,62.5,29.86,North,0,0.0,0.0,91,0.00,,,0.00,WUHU21623XXSP,2013-06-26 09:19:00,
2013-06-26 05:24:00,64.9,62.6,29.85,North,0,0.0,0.0,92,0.00,,,0.00,WUHU21623XXSP,2013-06-26 09:24:00,
2013-06-26 05:29:00,64.9,62.6,29.85,North,0,0.0,0.0,92,0.00,,,0.00,WUHU21623XXSP,2013-06-26 09:29:00,
2013-06-26 05:34:00,64.9,62.6,29.85,North,0,0.0,0.0,92,0.00,,,0.00,WUHU21623XXSP,2013-06-26 09:34:00,
2013-06-26 05:39:00,64.9,62.6,29.85,North,0,0.0,0.0,92,0.00,,,0.00,WUHU21623XXSP,2013-06-26 09:39:00,
2013-06-26 05:44:00,64.8,62.4,29.85,North,0,0.0,0.0,92,0.00,,,0.00,WUHU21623XXSP,2013-06-26 09:44:00,
2013-06-26 05:49:00,64.8,62.4,29.85,North,0,0.0,0.0,92,0.00,,,0.00,WUHU21623XXSP,2013-06-26 09:49:00,
2013-06-26 05:54:00,64.6,62.3,29.85,North,0,0.0,0.0,92,0.00,,,0.00,WUHU21623XXSP,2013-06-26 09:54:00,
2013-06-26 05:59:00,64.6,62.3,29.86,North,0,0.0,0.0,92,0.00,,,0.00,WUHU21623XXSP,2013-06-26 09:59:00,
2013-06-26 06:04:00,64.6,62.3,29.85,North,0,0.0,0.0,92,0.00,,,0.00,WUHU21623XXSP,2013-06-26 10:04:00,
2013-06-26 06:09:00,64.6,62.3,29.85,North,0,0.0,0.0,92,0.00,,,0.00,WUHU21623XXSP,2013-06-26 10:09:00,
2013-06-26 06:14:00,64.6,62.3,29.85,North,0,0.0,0.0,92,0.00,,,0.00,WUHU21623XXSP,2013-06-26 10:14:00,
2013-06-26 06:19:00,64.4,62.1,29.85,North,0,0.0,0.0,92,0.00,,,0.00,WUHU21623XXSP,2013-06-26 10:19:00,
2013-06-26 06:24:00,64.6,62.3,29.85,North,0,0.0,0.0,92,0.00,,,0.00,WUHU21623XXSP,2013-06-26 10:24:00,
2013-06-26 06:29:00,64.6,62.3,29.85,North,0,0.0,0.0,92,0.00,,,0.00,WUHU21623XXSP,2013-06-26 10:29:00,
2013-06-26 06:34:00,64.6,62.3,29.85,North,0,0.0,0.0,92,0.00,,,0.00,WUHU21623XXSP,2013-06-26 10:34:00,
2013-06-26 06:39:00,64.6,62.3,29.86,North,0,0.0,0.0,92,0.00,,,0.00,WUHU21623XXSP,2013-06-26 10:39:00,
2013-06-26 06:44:00,64.6,62.3,29.86,North,0,0.0,0.0,92,0.00,,,0.00,WUHU21623XXSP,2013-06-26 10:44:00,
2013-06-26 06:49:00,64.8,62.7,29.86,North,0,0.0,0.0,93,0.00,,,0.00,WUHU21623XXSP,2013-06-26 10:49:00,
2013-06-26 06:54:00,64.9,62.9,29.87,North,0,0.0,0.0,93,0.00,,,0.00,WUHU21623XXSP,2013-06-26 10:54:00,
2013-06-26 06:59:00,64.9,62.9,29.87,North,0,0.0,0.0,93,0.00,,,0.00,WUHU21623XXSP,2013-06-26 10:59:00,
2013-06-26 07:04:00,65.1,63.0,29.87,North,0,0.0,0.0,93,0.00,,,0.00,WUHU21623XXSP,2013-06-26 11:04:00,
2013-06-26 07:09:00,65.3,63.2,29.87,North,0,0.0,0.0,93,0.00,,,0.00,WUHU21623XXSP,2013-06-26 11:09:00,
2013-06-26 07:14:00,65.3,63.2,29.88,North,0,0.0,0.0,93,0.00,,,0.00,WUHU21623XXSP,2013-06-26 11:14:00,
2013-06-26 07:19:00,65.5,63.4,29.87,North,0,0.0,0.0,93,0.00,,,0.00,WUHU21623XXSP,2013-06-26 11:19:00,
2013-06-26 07:24:00,65.8,63.7,29.88,North,0,0.0,0.0,93,0.00,,,0.00,WUHU21623XXSP,2013-06-26 11:24:00,
2013-06-26 07:29:00,66.0,63.9,29.88,North,0,0.0,0.0,93,0.00,,,0.00,WUHU21623XXSP,2013-06-26 11:29:00,
2013-06-26 07:34:00,66.0,63.9,29.88,North,0,0.0,0.0,93,0.00,,,0.00,WUHU21623XXSP,2013-06-26 11:34:00,
2013-06-26 07:39:00,66.4,64.2,29.88,North,0,0.0,0.0,93,0.00,,,0.00,WUHU21623XXSP,2013-06-26 11:39:00,
2013-06-26 07:44:00,66.4,64.2,29.88,South,180,0.9,0.9,93,0.00,,,0.00,WUHU21623XXSP,2013-06-26 11:44:00,
2013-06-26 07:49:00,66.7,64.6,29.87,North,0,0.0,0.0,93,0.00,,,0.00,WUHU21623XXSP,2013-06-26 11:49:00,
2013-06-26 07:54:00,66.7,64.9,29.87,North,0,0.0,0.0,94,0.00,,,0.00,WUHU21623XXSP,2013-06-26 11:54:00,
2013-06-26 07:59:00,67.1,65.3,29.87,North,0,0.0,0.0,94,0.00,,,0.00,WUHU21623XXSP,2013-06-26 11:59:00,
2013-06-26 08:04:00,67.3,65.4,29.87,North,0,0.0,0.0,94,0.00,,,0.00,WUHU21623XXSP,2013-06-26 12:04:00,
2013-06-26 08:09:00,67.6,65.8,29.88,North,0,0.0,0.0,94,0.00,,,0.00,WUHU21623XXSP,2013-06-26 12:09:00,
2013-06-26 08:14:00,67.8,66.0,29.88,North,0,0.0,0.0,94,0.00,,,0.00,WUHU21623XXSP,2013-06-26 12:14:00,
2013-06-26 08:19:00,67.8,66.0,29.88,North,0,0.0,0.0,94,0.00,,,0.00,WUHU21623XXSP,2013-06-26 12:19:00,
2013-06-26 08:24:00,68.2,66.3,29.87,North,0,0.0,0.0,94,0.00,,,0.00,WUHU21623XXSP,2013-06-26 12:24:00,
2013-06-26 08:29:00,68.5,66.7,29.87,North,0,0.0,0.0,94,0.00,,,0.00,WUHU21623XXSP,2013-06-26 12:29:00,
2013-06-26 08:34:00,68.5,66.7,29.88,North,0,0.0,0.0,94,0.00,,,0.00,WUHU21623XXSP,2013-06-26 12:34:00,
2013-06-26 08:39:00,68.9,67.1,29.88,North,0,0.0,0.0,94,0.00,,,0.00,WUHU21623XXSP,2013-06-26 12:39:00,
2013-06-26 08:44:00,69.3,67.4,29.88,North,0,0.0,0.0,94,0.00,,,0.00,WUHU21623XXSP,2013-06-26 12:44:00,
2013-06-26 08:49:00,69.6,67.8,29.88,North,0,0.0,0.0,94,0.00,,,0.00,WUHU21623XXSP,2013-06-26 12:49:00,
2013-06-26 08:54:00,69.8,67.7,29.88,North,0,0.0,0.0,93,0.00,,,0.00,WUHU21623XXSP,2013-06-26 12:54:00,
2013-06-26 08:59:00,70.0,67.8,29.88,North,0,0.0,0.0,93,0.00,,,0.00,WUHU21623XXSP,2013-06-26 12:59:00,
2013-06-26 09:04:00,70.5,68.4,29.88,North,0,0.0,0.0,93,0.00,,,0.00,WUHU21623XXSP,2013-06-26 13:04:00,
2013-06-26 09:09:00,70.7,68.6,29.88,North,0,0.0,0.0,93,0.00,,,0.00,WUHU21623XXSP,2013-06-26 13:09:00,
2013-06-26 09:14:00,70.9,68.7,29.88,North,0,0.0,0.0,93,0.00,,,0.00,WUHU21623XXSP,2013-06-26 13:14:00,
2013-06-26 09:19:00,71.2,68.8,29.88,North,0,0.0,0.0,92,0.00,,,0.00,WUHU21623XXSP,2013-06-26 13:19:00,
2013-06-26 09:24:00,71.2,68.8,29.89,South,180,0.7,0.7,92,0.00,,,0.00,WUHU21623XXSP,2013-06-26 13:24:00,
2013-06-26 09:29:00,71.4,68.7,29.89,North,0,0.0,0.0,91,0.00,,,0.00,WUHU21623XXSP,2013-06-26 13:29:00,
2013-06-26 09:34:00,71.8,69.0,29.89,North,0,0.0,0.0,91,0.00,,,0.00,WUHU21623XXSP,2013-06-26 13:34:00,
2013-06-26 09:39:00,72.0,69.2,29.89,North,0,0.0,0.0,91,0.00,,,0.00,WUHU21623XXSP,2013-06-26 13:39:00,
2013-06-26 09:44:00,72.0,68.9,29.88,North,0,0.0,0.0,90,0.00,,,0.00,WUHU21623XXSP,2013-06-26 13:44:00,
2013-06-26 09:49:00,72.1,68.7,29.89,North,0,0.0,0.0,89,0.00,,,0.00,WUHU21623XXSP,2013-06-26 13:49:00,
2013-06-26 09:54:00,72.1,68.7,29.89,North,0,0.0,0.0,89,0.00,,,0.00,WUHU21623XXSP,2013-06-26 13:54:00,
2013-06-26 09:59:00,72.0,68.6,29.89,North,0,0.0,0.0,89,0.00,,,0.00,WUHU21623XXSP,2013-06-26 13:59:00,
2013-06-26 10:04:00,72.1,68.7,29.89,North,0,0.0,0.0,89,0.00,,,0.00,WUHU21623XXSP,2013-06-26 14:04:00,
2013-06-26 10:09:00,72.1,68.7,29.89,North,0,0.0,0.0,89,0.00,,,0.00,WUHU21623XXSP,2013-06-26 14:09:00,
2013-06-26 10:14:00,72.1,68.7,29.89,North,0,0.0,0.0,89,0.00,,,0.00,WUHU21623XXSP,2013-06-26 14:14:00,
2013-06-26 10:19:00,72.1,68.4,29.88,North,0,0.0,0.0,88,0.00,,,0.00,WUHU21623XXSP,2013-06-26 14:19:00,
2013-06-26 10:24:00,72.1,68.4,29.88,North,0,0.0,0.0,88,0.00,,,0.00,WUHU21623XXSP,2013-06-26 14:24:00,
2013-06-26 10:29:00,72.3,68.6,29.88,North,0,0.0,0.0,88,0.00,,,0.00,WUHU21623XXSP,2013-06-26 14:29:00,
2013-06-26 10:34:00,72.7,68.9,29.88,North,0,0.0,0.0,88,0.00,,,0.00,WUHU21623XXSP,2013-06-26 14:34:00,
2013-06-26 10:39:00,73.0,69.3,29.88,SSE,157,1.6,1.6,88,0.00,,,0.00,WUHU21623XXSP,2013-06-26 14:39:00,
2013-06-26 10:44:00,73.2,69.5,29.88,South,180,1.3,1.3,88,0.00,,,0.00,WUHU21623XXSP,2013-06-26 14:44:00,
2013-06-26 10:49:00,73.6,69.5,29.88,North,0,0.0,0.0,87,0.00,,,0.00,WUHU21623XXSP,2013-06-26 14:49:00,
2013-06-26 10:54:00,73.8,69.7,29.88,North,0,0.0,0.0,87,0.00,,,0.00,WUHU21623XXSP,2013-06-26 14:54:00,
2013-06-26 10:59:00,73.9,69.5,29.88,North,0,0.0,0.0,86,0.00,,,0.00,WUHU21623XXSP,2013-06-26 14:59:00,
2013-06-26 11:04:00,74.1,69.3,29.88,North,0,0.0,0.0,85,0.00,,,0.00,WUHU21623XXSP,2013-06-26 15:04:00,
2013-06-26 11:09:00,74.5,69.7,29.88,SW,225,1.6,1.6,85,0.00,,,0.00,WUHU21623XXSP,2013-06-26 15:09:00,
2013-06-26 11:14:00,74.7,69.5,29.88,North,0,0.0,0.0,84,0.00,,,0.00,WUHU21623XXSP,2013-06-26 15:14:00,
2013-06-26 11:19:00,75.0,69.9,29.88,SSW,202,0.7,0.7,84,0.00,,,0.00,WUHU21623XXSP,2013-06-26 15:19:00,
2013-06-26 11:24:00,75.0,69.9,29.88,SSW,202,2.3,2.9,84,0.00,,,0.00,WUHU21623XXSP,2013-06-26 15:24:00,
2013-06-26 11:29:00,75.4,69.9,29.88,North,0,0.0,0.0,83,0.00,,,0.00,WUHU21623XXSP,2013-06-26 15:29:00,
2013-06-26 11:34:00,75.6,70.1,29.88,North,0,0.0,0.0,83,0.00,,,0.00,WUHU21623XXSP,2013-06-26 15:34:00,
2013-06-26 11:39:00,75.6,70.1,29.88,North,0,0.0,0.0,83,0.00,,,0.00,WUHU21623XXSP,2013-06-26 15:39:00,
2013-06-26 11:44:00,75.7,69.9,29.88,SSW,192,2.3,2.5,82,0.00,,,0.00,WUHU21623XXSP,2013-06-26 15:44:00,
2013-06-26 11:49:00,75.9,70.1,29.88,SSW,202,0.4,0.4,82,0.00,,,0.00,WUHU21623XXSP,2013-06-26 15:49:00,
2013-06-26 11:54:00,75.9,70.1,29.88,North,0,0.0,0.0,82,0.00,,,0.00,WUHU21623XXSP,2013-06-26 15:54:00,
2013-06-26 11:59:00,76.1,69.9,29.88,SSW,202,1.8,1.8,81,0.00,,,0.00,WUHU21623XXSP,2013-06-26 15:59:00,
2013-06-26 12:04:00,76.3,70.0,29.88,SSW,202,2.2,2.2,81,0.00,,,0.00,WUHU21623XXSP,2013-06-26 16:04:00,
2013-06-26 12:09:00,76.5,70.2,29.88,North,0,0.0,0.0,81,0.00,,,0.00,WUHU21623XXSP,2013-06-26 16:09:00,
2013-06-26 12:14:00,76.6,70.4,29.88,SSW,202,0.4,0.4,81,0.00,,,0.00,WUHU21623XXSP,2013-06-26 16:14:00,
2013-06-26 12:19:00,77.2,70.9,29.88,SSW,202,0.4,0.4,81,0.00,,,0.00,WUHU21623XXSP,2013-06-26 16:19:00,
2013-06-26 12:24:00,77.4,70.7,29.88,North,0,0.0,0.0,80,0.00,,,0.00,WUHU21623XXSP,2013-06-26 16:24:00,
2013-06-26 12:30:00,77.4,70.7,29.88,North,0,0.0,0.0,80,0.00,,,0.00,WUHU21623XXSP,2013-06-26 16:30:00,
2013-06-26 12:35:00,77.7,71.1,29.88,North,0,0.0,0.0,80,0.00,,,0.00,WUHU21623XXSP,2013-06-26 16:35:00,
2013-06-26 12:40:00,77.9,70.8,29.88,North,0,0.0,0.0,79,0.00,,,0.00,WUHU21623XXSP,2013-06-26 16:40:00,
2013-06-26 12:45:00,77.9,70.5,29.88,North,0,0.0,0.0,78,0.00,,,0.00,WUHU21623XXSP,2013-06-26 16:45:00,
2013-06-26 12:50:00,78.1,70.6,29.88,North,0,0.0,0.0,78,0.00,,,0.00,WUHU21623XXSP,2013-06-26 16:50:00,
2013-06-26 12:55:00,77.9,70.5,29.87,North,0,0.0,0.0,78,0.00,,,0.00,WUHU21623XXSP,2013-06-26 16:55:00,
2013-06-26 13:00:00,77.9,70.8,29.87,North,0,0.0,0.0,79,0.00,,,0.00,WUHU21623XXSP,2013-06-26 17:00:00,
2013-06-26 13:05:00,77.9,70.5,29.88,North,0,0.0,0.0,78,0.00,,,0.00,WUHU21623XXSP,2013-06-26 17:05:00,
2013-06-26 13:10:00,78.1,69.9,29.87,North,0,0.0,0.0,76,0.00,,,0.00,WUHU21623XXSP,2013-06-26 17:10:00,
2013-06-26 13:15:00,78.6,70.4,29.88,North,0,0.0,0.0,76,0.00,,,0.00,WUHU21623XXSP,2013-06-26 17:15:00,
2013-06-26 13:20:00,79.3,71.9,29.87,North,0,0.0,0.0,78,0.00,,,0.00,WUHU21623XXSP,2013-06-26 17:20:00,
2013-06-26 13:25:00,79.7,71.1,29.87,North,0,0.0,0.0,75,0.00,,,0.00,WUHU21623XXSP,2013-06-26 17:25:00,
2013-06-26 13:30:00,79.3,69.9,29.87,SSW,202,2.2,2.2,73,0.00,,,0.00,WUHU21623XXSP,2013-06-26 17:30:00,
2013-06-26 13:35:00,79.2,70.5,29.87,North,0,0.0,0.0,75,0.00,,,0.00,WUHU21623XXSP,2013-06-26 17:35:00,
2013-06-26 13:40:00,79.0,69.9,29.87,North,0,0.0,0.0,74,0.00,,,0.00,WUHU21623XXSP,2013-06-26 17:40:00,
2013-06-26 13:45:00,78.6,69.6,29.87,North,0,0.0,0.0,74,0.00,,,0.00,WUHU21623XXSP,2013-06-26 17:45:00,
2013-06-26 13:50:00,79.0,69.2,29.87,South,180,1.8,1.8,72,0.00,,,0.00,WUHU21623XXSP,2013-06-26 17:50:00,
2013-06-26 13:55:00,79.5,71.3,29.86,South,180,2.0,2.0,76,0.00,,,0.00,WUHU21623XXSP,2013-06-26 17:55:00,
2013-06-26 14:00:00,80.1,71.4,29.86,North,0,0.0,0.0,75,0.00,,,0.00,WUHU21623XXSP,2013-06-26 18:00:00,
2013-06-26 14:05:00,80.4,71.4,29.86,North,0,0.0,0.0,74,0.00,,,0.00,WUHU21623XXSP,2013-06-26 18:05:00,
2013-06-26 14:10:00,80.8,71.7,29.85,South,180,4.0,4.0,74,0.00,,,0.00,WUHU21623XXSP,2013-06-26 18:10:00,
2013-06-26 14:15:00,81.0,72.7,29.84,North,0,0.0,0.0,76,0.00,,,0.00,WUHU21623XXSP,2013-06-26 18:15:00,
2013-06-26 14:20:00,80.8,71.3,29.84,North,0,0.0,0.0,73,0.00,,,0.00,WUHU21623XXSP,2013-06-26 18:20:00,
2013-06-26 14:25:00,80.8,71.3,29.84,North,0,0.0,0.0,73,0.00,,,0.00,WUHU21623XXSP,2013-06-26 18:25:00,
2013-06-26 14:30:00,80.6,72.0,29.83,South,180,0.7,0.7,75,0.00,,,0.00,WUHU21623XXSP,2013-06-26 18:30:00,
2013-06-26 14:35:00,80.4,71.0,29.84,North,0,0.0,0.0,73,0.00,,,0.00,WUHU21623XXSP,2013-06-26 18:35:00,
2013-06-26 14:40:00,80.2,70.8,29.84,NNE,22,3.8,3.8,73,0.00,,,0.00,WUHU21623XXSP,2013-06-26 18:40:00,
2013-06-26 14:45:00,80.2,70.8,29.83,North,0,0.0,0.0,73,0.00,,,0.00,WUHU21623XXSP,2013-06-26 18:45:00,
2013-06-26 14:50:00,80.4,71.4,29.83,North,0,0.0,0.0,74,0.00,,,0.00,WUHU21623XXSP,2013-06-26 18:50:00,
2013-06-26 14:55:00,80.4,71.4,29.83,North,0,0.0,0.0,74,0.00,,,0.00,WUHU21623XXSP,2013-06-26 18:55:00,
2013-06-26 15:00:00,80.4,71.4,29.83,North,0,0.0,0.0,74,0.00,,,0.00,WUHU21623XXSP,2013-06-26 19:00:00,
2013-06-26 15:05:00,80.4,71.4,29.83,North,0,0.0,0.0,74,0.00,,,0.00,WUHU21623XXSP,2013-06-26 19:05:00,
2013-06-26 15:10:00,80.4,71.4,29.82,North,0,0.0,0.0,74,0.00,,,0.00,WUHU21623XXSP,2013-06-26 19:10:00,
2013-06-26 15:15:00,80.4,71.0,29.83,NNE,22,1.3,1.3,73,0.00,,,0.00,WUHU21623XXSP,2013-06-26 19:15:00,
2013-06-26 15:20:00,80.4,71.4,29.83,SE,135,5.1,5.1,74,0.00,,,0.00,WUHU21623XXSP,2013-06-26 19:20:00,
2013-06-26 15:25:00,80.4,71.0,29.83,ESE,116,3.3,5.8,73,0.00,,,0.00,WUHU21623XXSP,2013-06-26 19:25:00,
2013-06-26 15:30:00,80.6,71.2,29.83,North,0,0.0,0.0,73,0.00,,,0.00,WUHU21623XXSP,2013-06-26 19:30:00,
2013-06-26 15:35:00,81.1,71.3,29.83,North,0,0.0,0.0,72,0.00,,,0.00,WUHU21623XXSP,2013-06-26 19:35:00,
2013-06-26 15:40:00,81.3,71.0,29.83,North,0,0.0,0.0,71,0.00,,,0.00,WUHU21623XXSP,2013-06-26 19:40:00,
2013-06-26 15:45:00,81.3,71.0,29.83,South,180,0.7,0.7,71,0.00,,,0.00,WUHU21623XXSP,2013-06-26 19:45:00,
2013-06-26 15:50:00,81.1,71.3,29.83,North,0,0.0,0.0,72,0.00,,,0.00,WUHU21623XXSP,2013-06-26 19:50:00,
2013-06-26 15:55:00,81.1,71.3,29.83,North,0,0.0,0.0,72,0.00,,,0.00,WUHU21623XXSP,2013-06-26 19:55:00,
2013-06-26 16:00:00,81.1,71.3,29.84,ESE,112,5.6,6.7,72,0.00,,,0.00,WUHU21623XXSP,2013-06-26 20:00:00,
2013-06-26 16:05:00,81.0,71.1,29.84,North,0,0.0,0.0,72,0.00,,,0.00,WUHU21623XXSP,2013-06-26 20:05:00,
2013-06-26 16:10:00,80.8,71.1,29.83,South,180,1.6,1.6,73,0.00,,,0.00,WUHU21623XXSP,2013-06-26 20:10:00,
2013-06-26 16:15:00,80.4,71.3,29.83,North,0,0.0,0.0,73,0.00,,,0.00,WUHU21623XXSP,2013-06-26 20:15:00,
2013-06-26 16:20:00,80.4,71.0,29.83,North,0,0.0,0.0,73,0.00,,,0.00,WUHU21623XXSP,2013-06-26 20:20:00,
2013-06-26 16:25:00,80.2,70.8,29.83,ESE,112,1.8,1.8,73,0.00,,,0.00,WUHU21623XXSP,2013-06-26 20:25:00,
2013-06-26 16:30:00,80.2,70.4,29.82,North,0,0.0,0.0,72,0.00,,,0.00,WUHU21623XXSP,2013-06-26 20:30:00,
2013-06-26 16:35:00,79.9,70.1,29.82,NNE,22,2.7,2.7,72,0.00,,,0.00,WUHU21623XXSP,2013-06-26 20:35:00,
2013-06-26 16:40:00,79.9,70.1,29.82,North,0,0.0,0.0,72,0.00,,,0.00,WUHU21623XXSP,2013-06-26 20:40:00,
2013-06-26 16:45:00,79.9,70.1,29.81,NNE,31,2.9,3.4,72,0.00,,,0.00,WUHU21623XXSP,2013-06-26 20:45:00,
2013-06-26 16:50:00,79.9,70.4,29.81,NNE,22,2.7,2.7,73,0.00,,,0.00,WUHU21623XXSP,2013-06-26 20:50:00,
2013-06-26 16:55:00,79.9,70.4,29.81,North,0,0.0,0.0,73,0.00,,,0.00,WUHU21623XXSP,2013-06-26 20:55:00,
2013-06-26 17:00:00,79.9,70.8,29.81,SSE,166,2.3,2.7,74,0.00,,,0.00,WUHU21623XXSP,2013-06-26 21:00:00,
2013-06-26 17:05:00,80.1,71.4,29.81,SSE,148,1.7,1.8,75,0.00,,,0.00,WUHU21623XXSP,2013-06-26 21:05:00,
2013-06-26 17:10:00,79.9,70.8,29.81,South,180,0.9,0.9,74,0.00,,,0.00,WUHU21623XXSP,2013-06-26 21:10:00,
2013-06-26 17:15:00,80.2,70.8,29.81,North,0,0.0,0.0,73,0.00,,,0.00,WUHU21623XXSP,2013-06-26 21:15:00,
2013-06-26 17:20:00,80.2,71.2,29.81,North,0,0.0,0.0,74,0.00,,,0.00,WUHU21623XXSP,2013-06-26 21:20:00,
2013-06-26 17:25:00,80.2,71.2,29.81,North,0,0.0,0.0,74,0.00,,,0.00,WUHU21623XXSP,2013-06-26 21:25:00,
2013-06-26 17:30:00,80.1,71.4,29.81,North,0,0.0,0.0,75,0.00,,,0.00,WUHU21623XXSP,2013-06-26 21:30:00,
2013-06-26 17:35:00,80.2,71.6,29.81,North,0,0.0,0.0,75,0.00,,,0.00,WUHU21623XXSP,2013-06-26 21:35:00,
2013-06-26 17:40:00,80.2,71.2,29.81,North,0,0.0,0.0,74,0.00,,,0.00,WUHU21623XXSP,2013-06-26 21:40:00,
2013-06-26 17:50:00,80.2,71.2,29.81,North,0,0.0,0.0,74,0.00,,,0.00,WUHU21623XXSP,2013-06-26 21:50:00,
2013-06-26 17:55:00,79.9,71.2,29.80,North,0,0.0,0.0,75,0.00,,,0.00,WUHU21623XXSP,2013-06-26 21:55:00,
2013-06-26 18:00:00,79.9,71.2,29.80,North,0,0.0,0.0,75,0.00,,,0.00,WUHU21623XXSP,2013-06-26 22:00:00,
2013-06-26 18:05:00,79.7,71.1,29.80,North,0,0.0,0.0,75,0.00,,,0.00,WUHU21623XXSP,2013-06-26 22:05:00,
2013-06-26 18:10:00,79.7,71.5,29.80,North,0,0.0,0.0,76,0.00,,,0.00,WUHU21623XXSP,2013-06-26 22:10:00,
2013-06-26 18:15:00,79.7,71.3,29.80,North,0,0.0,0.0,76,0.00,,,0.00,WUHU21623XXSP,2013-06-26 22:15:00,
2013-06-26 18:20:00,79.7,71.5,29.80,North,0,0.0,0.0,76,0.00,,,0.00,WUHU21623XXSP,2013-06-26 22:20:00,
2013-06-26 18:25:00,79.7,71.5,29.80,North,0,0.0,0.0,76,0.00,,,0.00,WUHU21623XXSP,2013-06-26 22:25:00,
2013-06-26 18:30:00,79.7,70.7,29.79,North,0,0.0,0.0,74,0.00,,,0.00,WUHU21623XXSP,2013-06-26 22:30:00,
2013-06-26 18:35:00,79.7,70.7,29.79,North,0,0.0,0.0,74,0.00,,,0.00,WUHU21623XXSP,2013-06-26 22:35:00,
2013-06-26 18:40:00,79.7,71.1,29.79,SSE,157,1.3,1.3,75,0.00,,,0.00,WUHU21623XXSP,2013-06-26 22:40:00,
2013-06-26 18:45:00,79.5,70.5,29.78,SSE,157,1.3,1.3,74,0.00,,,0.00,WUHU21623XXSP,2013-06-26 22:45:00,
2013-06-26 18:50:00,79.5,70.5,29.78,North,0,0.0,0.0,74,0.00,,,0.00,WUHU21623XXSP,2013-06-26 22:50:00,
2013-06-26 18:55:00,79.5,70.5,29.78,North,0,0.0,0.0,74,0.00,,,0.00,WUHU21623XXSP,2013-06-26 22:55:00,
2013-06-26 19:00:00,79.5,70.5,29.78,North,0,0.0,0.0,74,0.00,,,0.00,WUHU21623XXSP,2013-06-26 23:00:00,
2013-06-26 19:05:00,79.5,70.9,29.78,North,0,0.0,0.0,75,0.00,,,0.00,WUHU21623XXSP,2013-06-26 23:05:00,
2013-06-26 19:10:00,79.5,70.9,29.78,SSE,157,3.6,5.4,75,0.00,,,0.00,WUHU21623XXSP,2013-06-26 23:10:00,
2013-06-26 19:15:00,79.3,70.7,29.78,SE,139,1.0,1.8,75,0.00,,,0.00,WUHU21623XXSP,2013-06-26 23:15:00,
2013-06-26 19:20:00,79.3,70.7,29.78,North,0,0.0,0.0,75,0.00,,,0.00,WUHU21623XXSP,2013-06-26 23:20:00,
2013-06-26 19:25:00,79.2,70.5,29.78,South,180,1.6,1.6,75,0.00,,,0.00,WUHU21623XXSP,2013-06-26 23:25:00,
2013-06-26 19:30:00,79.0,70.3,29.78,South,180,3.4,3.4,75,0.00,,,0.00,WUHU21623XXSP,2013-06-26 23:30:00,
2013-06-26 19:35:00,79.0,70.3,29.78,North,0,0.0,0.0,75,0.00,,,0.00,WUHU21623XXSP,2013-06-26 23:35:00,
2013-06-26 19:40:00,79.0,70.7,29.78,North,0,0.0,0.0,76,0.00,,,0.00,WUHU21623XXSP,2013-06-26 23:40:00,
2013-06-26 19:45:00,78.6,70.4,29.78,North,0,0.0,0.0,76,0.00,,,0.00,WUHU21623XXSP,2013-06-26 23:45:00,
2013-06-26 19:50:00,78.6,70.4,29.78,North,0,0.0,0.0,76,0.00,,,0.00,WUHU21623XXSP,2013-06-26 23:50:00,
2013-06-26 19:55:00,78.6,70.4,29.78,North,0,0.0,0.0,76,0.00,,,0.00,WUHU21623XXSP,2013-06-26 23:55:00,
2013-06-26 20:00:00,78.4,70.6,29.78,North,0,0.0,0.0,77,0.00,,,0.00,WUHU21623XXSP,2013-06-27 00:00:00,
2013-06-26 20:05:00,78.4,70.6,29.78,North,0,0.0,0.0,77,0.00,,,0.00,WUHU21623XXSP,2013-06-27 00:05:00,
2013-06-26 20:10:00,78.4,70.6,29.78,North,0,0.0,0.0,77,0.00,,,0.00,WUHU21623XXSP,2013-06-27 00:10:00,
2013-06-26 20:15:00,78.1,70.3,29.78,North,0,0.0,0.0,77,0.00,,,0.00,WUHU21623XXSP,2013-06-27 00:15:00,
2013-06-26 20:20:00,78.1,70.3,29.78,North,0,0.0,0.0,77,0.00,,,0.00,WUHU21623XXSP,2013-06-27 00:20:00,
2013-06-26 20:25:00,77.9,70.5,29.78,North,0,0.0,0.0,78,0.00,,,0.00,WUHU21623XXSP,2013-06-27 00:25:00,
2013-06-26 20:30:00,77.7,70.3,29.78,North,0,0.0,0.0,78,0.00,,,0.00,WUHU21623XXSP,2013-06-27 00:30:00,
2013-06-26 20:35:00,77.5,70.1,29.79,North,0,0.0,0.0,78,0.00,,,0.00,WUHU21623XXSP,2013-06-27 00:35:00,
2013-06-26 20:40:00,77.5,70.1,29.79,North,0,0.0,0.0,78,0.00,,,0.00,WUHU21623XXSP,2013-06-27 00:40:00,
2013-06-26 20:45:00,77.4,69.9,29.79,North,0,0.0,0.0,78,0.00,,,0.00,WUHU21623XXSP,2013-06-27 00:45:00,
2013-06-26 20:50:00,77.4,69.9,29.79,North,0,0.0,0.0,78,0.00,,,0.00,WUHU21623XXSP,2013-06-27 00:50:00,
2013-06-26 20:55:00,77.4,69.9,29.79,North,0,0.0,0.0,78,0.00,,,0.00,WUHU21623XXSP,2013-06-27 00:55:00,
2013-06-26 21:00:00,77.0,70.0,29.79,North,0,0.0,0.0,79,0.00,,,0.00,WUHU21623XXSP,2013-06-27 01:00:00,
2013-06-26 21:05:00,76.8,69.8,29.79,North,0,0.0,0.0,79,0.00,,,0.00,WUHU21623XXSP,2013-06-27 01:05:00,
2013-06-26 21:10:00,76.8,69.8,29.79,North,0,0.0,0.0,79,0.00,,,0.00,WUHU21623XXSP,2013-06-27 01:10:00,
2013-06-26 21:15:00,76.6,70.0,29.79,North,0,0.0,0.0,80,0.00,,,0.00,WUHU21623XXSP,2013-06-27 01:15:00,
2013-06-26 21:20:00,76.5,69.9,29.79,North,0,0.0,0.0,80,0.00,,,0.00,WUHU21623XXSP,2013-06-27 01:20:00,
2013-06-26 21:25:00,76.3,69.7,29.79,North,0,0.0,0.0,80,0.00,,,0.00,WUHU21623XXSP,2013-06-27 01:25:00,
2013-06-26 21:30:00,75.9,69.4,29.79,North,0,0.0,0.0,80,0.00,,,0.00,WUHU21623XXSP,2013-06-27 01:30:00,
2013-06-26 21:35:00,75.9,69.7,29.79,North,0,0.0,0.0,81,0.00,,,0.00,WUHU21623XXSP,2013-06-27 01:35:00,
2013-06-26 21:40:00,75.7,69.5,29.78,North,0,0.0,0.0,81,0.00,,,0.00,WUHU21623XXSP,2013-06-27 01:40:00,
2013-06-26 21:45:00,75.6,69.4,29.79,North,0,0.0,0.0,81,0.00,,,0.00,WUHU21623XXSP,2013-06-27 01:45:00,
2013-06-26 21:50:00,75.4,69.2,29.78,North,0,0.0,0.0,81,0.00,,,0.00,WUHU21623XXSP,2013-06-27 01:50:00,
2013-06-26 21:55:00,75.0,69.2,29.79,North,0,0.0,0.0,82,0.00,,,0.00,WUHU21623XXSP,2013-06-27 01:55:00,
2013-06-26 22:00:00,74.8,69.0,29.79,North,0,0.0,0.0,82,0.00,,,0.00,WUHU21623XXSP,2013-06-27 02:00:00,
2013-06-26 22:05:00,74.8,69.0,29.79,North,0,0.0,0.0,82,0.00,,,0.00,WUHU21623XXSP,2013-06-27 02:05:00,
2013-06-26 22:10:00,74.5,68.7,29.79,North,0,0.0,0.0,82,0.00,,,0.00,WUHU21623XXSP,2013-06-27 02:10:00,
2013-06-26 22:15:00,74.5,68.7,29.79,North,0,0.0,0.0,82,0.00,,,0.00,WUHU21623XXSP,2013-06-27 02:15:00,
2013-06-26 22:20:00,74.3,68.8,29.80,SSE,157,7.6,7.6,83,0.00,,,0.00,WUHU21623XXSP,2013-06-27 02:20:00,
2013-06-26 22:25:00,74.3,68.5,29.79,North,0,0.0,0.0,82,0.00,,,0.00,WUHU21623XXSP,2013-06-27 02:25:00,
2013-06-26 22:30:00,74.1,68.0,29.79,North,0,0.0,0.0,81,0.00,,,0.00,WUHU21623XXSP,2013-06-27 02:30:00,
2013-06-26 22:35:00,74.1,68.0,29.79,North,0,0.0,0.0,81,0.00,,,0.00,WUHU21623XXSP,2013-06-27 02:35:00,
2013-06-26 22:40:00,73.9,67.8,29.80,North,0,0.0,0.0,81,0.00,,,0.00,WUHU21623XXSP,2013-06-27 02:40:00,
2013-06-26 22:45:00,73.9,67.8,29.80,North,0,0.0,0.0,81,0.00,,,0.00,WUHU21623XXSP,2013-06-27 02:45:00,
2013-06-26 22:50:00,73.9,67.8,29.80,North,0,0.0,0.0,81,0.00,,,0.00,WUHU21623XXSP,2013-06-27 02:50:00,
2013-06-26 22:55:00,73.8,67.6,29.80,North,0,0.0,0.0,81,0.00,,,0.00,WUHU21623XXSP,2013-06-27 02:55:00,
2013-06-26 23:00:00,73.6,67.4,29.79,North,0,0.0,0.0,81,0.00,,,0.00,WUHU21623XXSP,2013-06-27 03:00:00,
2013-06-26 23:05:00,73.6,67.4,29.80,North,0,0.0,0.0,81,0.00,,,0.00,WUHU21623XXSP,2013-06-27 03:05:00,
2013-06-26 23:10:00,73.2,67.1,29.79,North,0,0.0,0.0,81,0.00,,,0.00,WUHU21623XXSP,2013-06-27 03:10:00,
2013-06-26 23:15:00,73.2,67.1,29.79,North,0,0.0,0.0,81,0.00,,,0.00,WUHU21623XXSP,2013-06-27 03:15:00,
2013-06-26 23:20:00,73.2,67.1,29.79,North,0,0.0,0.0,81,0.00,,,0.00,WUHU21623XXSP,2013-06-27 03:20:00,
2013-06-26 23:25:00,73.0,67.2,29.79,North,0,0.0,0.0,82,0.00,,,0.00,WUHU21623XXSP,2013-06-27 03:25:00,
2013-06-26 23:30:00,73.0,67.2,29.79,North,0,0.0,0.0,82,0.00,,,0.00,WUHU21623XXSP,2013-06-27 03:30:00,
2013-06-26 23:35:00,72.7,66.9,29.79,North,0,0.0,0.0,82,0.00,,,0.00,WUHU21623XXSP,2013-06-27 03:35:00,
2013-06-26 23:40:00,72.7,66.9,29.79,North,0,0.0,0.0,82,0.00,,,0.00,WUHU21623XXSP,2013-06-27 03:40:00,
2013-06-26 23:45:00,72.5,66.7,29.79,North,0,0.0,0.0,82,0.00,,,0.00,WUHU21623XXSP,2013-06-27 03:45:00,
2013-06-26 23:50:00,72.3,66.9,29.79,North,0,0.0,0.0,83,0.00,,,0.00,WUHU21623XXSP,2013-06-27 03:50:00,
2013-06-26 23:55:00,72.3,66.9,29.79,North,0,0.0,0.0,83,0.00,,,0.00,WUHU21623XXSP,2013-06-27 03:55:00,